sensor_id;sensor_type;location;lat;lon;timestamp;P1;durP1;ratioP1;P2;durP2;ratioP2
37633;SDS011;32048;49.902;22.508;2023-03-13T00:03:52;15.50;;;6.82;;
37633;SDS011;32048;49.902;22.508;2023-03-13T00:06:31;13.57;;;5.70;;
37633;SDS011;32048;49.902;22.508;2023-03-13T00:09:01;12.17;;;6.30;;
37633;SDS011;32048;49.902;22.508;2023-03-13T00:11:30;11.43;;;5.10;;
37633;SDS011;32048;49.902;22.508;2023-03-13T00:13:58;12.93;;;5.67;;
37633;SDS011;32048;49.902;22.508;2023-03-13T00:16:26;14.10;;;6.07;;
37633;SDS011;32048;49.902;22.508;2023-03-13T00:18:55;17.13;;;7.15;;
37633;SDS011;32048;49.902;22.508;2023-03-13T00:21:24;11.20;;;5.10;;
37633;SDS011;32048;49.902;22.508;2023-03-13T00:23:53;14.57;;;6.33;;
37633;SDS011;32048;49.902;22.508;2023-03-13T00:26:22;12.87;;;5.73;;
37633;SDS011;32048;49.902;22.508;2023-03-13T00:28:51;9.50;;;4.97;;
37633;SDS011;32048;49.902;22.508;2023-03-13T00:31:19;11.00;;;4.90;;
37633;SDS011;32048;49.902;22.508;2023-03-13T00:33:49;10.67;;;4.93;;
37633;SDS011;32048;49.902;22.508;2023-03-13T00:36:19;10.73;;;4.63;;
37633;SDS011;32048;49.902;22.508;2023-03-13T00:38:48;11.07;;;5.47;;
37633;SDS011;32048;49.902;22.508;2023-03-13T00:41:19;8.80;;;5.10;;
37633;SDS011;32048;49.902;22.508;2023-03-13T00:43:48;8.63;;;4.30;;
37633;SDS011;32048;49.902;22.508;2023-03-13T00:46:16;12.20;;;5.10;;
37633;SDS011;32048;49.902;22.508;2023-03-13T00:48:45;12.23;;;5.47;;
37633;SDS011;32048;49.902;22.508;2023-03-13T00:51:13;10.77;;;5.00;;
37633;SDS011;32048;49.902;22.508;2023-03-13T00:53:42;9.70;;;4.70;;
37633;SDS011;32048;49.902;22.508;2023-03-13T00:56:11;10.57;;;5.53;;
37633;SDS011;32048;49.902;22.508;2023-03-13T00:58:40;11.13;;;5.77;;
37633;SDS011;32048;49.902;22.508;2023-03-13T01:01:13;9.80;;;4.95;;
37633;SDS011;32048;49.902;22.508;2023-03-13T01:03:42;13.30;;;5.57;;
37633;SDS011;32048;49.902;22.508;2023-03-13T01:06:13;8.67;;;4.70;;
37633;SDS011;32048;49.902;22.508;2023-03-13T01:08:42;8.97;;;5.23;;
37633;SDS011;32048;49.902;22.508;2023-03-13T01:11:10;7.30;;;4.27;;
37633;SDS011;32048;49.902;22.508;2023-03-13T01:13:42;9.10;;;5.13;;
37633;SDS011;32048;49.902;22.508;2023-03-13T01:16:10;10.33;;;5.70;;
37633;SDS011;32048;49.902;22.508;2023-03-13T01:18:43;12.07;;;5.23;;
37633;SDS011;32048;49.902;22.508;2023-03-13T01:21:12;8.33;;;4.47;;
37633;SDS011;32048;49.902;22.508;2023-03-13T01:23:40;7.55;;;4.15;;
37633;SDS011;32048;49.902;22.508;2023-03-13T01:26:07;9.57;;;4.77;;
37633;SDS011;32048;49.902;22.508;2023-03-13T01:28:35;7.90;;;3.40;;
37633;SDS011;32048;49.902;22.508;2023-03-13T01:34:01;6.80;;;3.63;;
37633;SDS011;32048;49.902;22.508;2023-03-13T01:36:30;8.17;;;4.20;;
37633;SDS011;32048;49.902;22.508;2023-03-13T01:38:58;8.80;;;4.27;;
37633;SDS011;32048;49.902;22.508;2023-03-13T01:41:27;8.87;;;4.13;;
37633;SDS011;32048;49.902;22.508;2023-03-13T01:43:56;8.93;;;4.90;;
37633;SDS011;32048;49.902;22.508;2023-03-13T01:46:27;12.57;;;4.87;;
37633;SDS011;32048;49.902;22.508;2023-03-13T01:54:24;8.73;;;4.37;;
37633;SDS011;32048;49.902;22.508;2023-03-13T01:57:00;8.10;;;3.77;;
37633;SDS011;32048;49.902;22.508;2023-03-13T01:59:34;7.07;;;3.67;;
37633;SDS011;32048;49.902;22.508;2023-03-13T02:02:11;7.93;;;4.00;;
37633;SDS011;32048;49.902;22.508;2023-03-13T02:04:45;8.48;;;4.30;;
37633;SDS011;32048;49.902;22.508;2023-03-13T02:07:16;9.67;;;4.20;;
37633;SDS011;32048;49.902;22.508;2023-03-13T02:09:50;8.30;;;4.27;;
37633;SDS011;32048;49.902;22.508;2023-03-13T02:12:28;8.37;;;4.50;;
37633;SDS011;32048;49.902;22.508;2023-03-13T02:14:58;7.87;;;3.77;;
37633;SDS011;32048;49.902;22.508;2023-03-13T02:17:30;5.97;;;3.93;;
37633;SDS011;32048;49.902;22.508;2023-03-13T02:19:59;5.97;;;3.03;;
37633;SDS011;32048;49.902;22.508;2023-03-13T02:27:40;3.40;;;2.83;;
37633;SDS011;32048;49.902;22.508;2023-03-13T02:30:09;4.40;;;2.92;;
37633;SDS011;32048;49.902;22.508;2023-03-13T02:32:38;4.00;;;2.53;;
37633;SDS011;32048;49.902;22.508;2023-03-13T02:35:07;5.05;;;3.15;;
37633;SDS011;32048;49.902;22.508;2023-03-13T02:37:37;7.73;;;3.73;;
37633;SDS011;32048;49.902;22.508;2023-03-13T02:40:09;5.03;;;2.50;;
37633;SDS011;32048;49.902;22.508;2023-03-13T02:42:39;4.70;;;3.03;;
37633;SDS011;32048;49.902;22.508;2023-03-13T02:45:09;5.67;;;3.33;;
37633;SDS011;32048;49.902;22.508;2023-03-13T02:47:40;4.70;;;3.33;;
37633;SDS011;32048;49.902;22.508;2023-03-13T02:50:07;5.93;;;3.33;;
37633;SDS011;32048;49.902;22.508;2023-03-13T02:52:36;4.30;;;2.53;;
37633;SDS011;32048;49.902;22.508;2023-03-13T02:55:14;5.07;;;3.50;;
37633;SDS011;32048;49.902;22.508;2023-03-13T02:57:48;5.10;;;3.63;;
37633;SDS011;32048;49.902;22.508;2023-03-13T03:00:15;5.77;;;3.20;;
37633;SDS011;32048;49.902;22.508;2023-03-13T03:02:44;12.45;;;4.05;;
37633;SDS011;32048;49.902;22.508;2023-03-13T03:05:11;6.03;;;3.87;;
37633;SDS011;32048;49.902;22.508;2023-03-13T03:07:39;8.37;;;4.40;;
37633;SDS011;32048;49.902;22.508;2023-03-13T03:10:06;10.50;;;4.83;;
37633;SDS011;32048;49.902;22.508;2023-03-13T03:12:34;6.57;;;4.70;;
37633;SDS011;32048;49.902;22.508;2023-03-13T03:15:01;7.27;;;4.40;;
37633;SDS011;32048;49.902;22.508;2023-03-13T03:17:30;6.85;;;4.15;;
37633;SDS011;32048;49.902;22.508;2023-03-13T03:19:57;8.60;;;4.77;;
37633;SDS011;32048;49.902;22.508;2023-03-13T03:22:24;6.83;;;4.53;;
37633;SDS011;32048;49.902;22.508;2023-03-13T03:24:51;8.93;;;4.93;;
37633;SDS011;32048;49.902;22.508;2023-03-13T03:27:18;7.90;;;5.00;;
37633;SDS011;32048;49.902;22.508;2023-03-13T03:29:45;8.87;;;5.63;;
37633;SDS011;32048;49.902;22.508;2023-03-13T03:32:12;7.73;;;5.53;;
37633;SDS011;32048;49.902;22.508;2023-03-13T03:34:39;8.17;;;3.60;;
37633;SDS011;32048;49.902;22.508;2023-03-13T03:37:06;9.37;;;5.33;;
37633;SDS011;32048;49.902;22.508;2023-03-13T03:39:34;10.17;;;5.80;;
37633;SDS011;32048;49.902;22.508;2023-03-13T03:42:02;9.00;;;5.53;;
37633;SDS011;32048;49.902;22.508;2023-03-13T03:44:30;7.30;;;4.90;;
37633;SDS011;32048;49.902;22.508;2023-03-13T03:46:57;10.20;;;6.53;;
37633;SDS011;32048;49.902;22.508;2023-03-13T03:49:24;9.77;;;5.53;;
37633;SDS011;32048;49.902;22.508;2023-03-13T03:51:51;12.53;;;5.40;;
37633;SDS011;32048;49.902;22.508;2023-03-13T03:54:18;8.17;;;5.93;;
37633;SDS011;32048;49.902;22.508;2023-03-13T03:56:45;10.20;;;6.07;;
37633;SDS011;32048;49.902;22.508;2023-03-13T03:59:12;10.03;;;5.90;;
37633;SDS011;32048;49.902;22.508;2023-03-13T04:01:39;10.77;;;6.07;;
37633;SDS011;32048;49.902;22.508;2023-03-13T04:04:07;9.60;;;5.73;;
37633;SDS011;32048;49.902;22.508;2023-03-13T04:06:34;9.07;;;6.10;;
37633;SDS011;32048;49.902;22.508;2023-03-13T04:09:01;11.93;;;6.23;;
37633;SDS011;32048;49.902;22.508;2023-03-13T04:11:28;11.00;;;5.03;;
37633;SDS011;32048;49.902;22.508;2023-03-13T04:13:55;11.37;;;6.33;;
37633;SDS011;32048;49.902;22.508;2023-03-13T04:16:22;7.60;;;4.97;;
37633;SDS011;32048;49.902;22.508;2023-03-13T04:18:49;8.30;;;4.83;;
37633;SDS011;32048;49.902;22.508;2023-03-13T04:21:16;8.13;;;4.60;;
37633;SDS011;32048;49.902;22.508;2023-03-13T04:23:43;7.60;;;5.00;;
37633;SDS011;32048;49.902;22.508;2023-03-13T04:26:10;7.17;;;4.73;;
37633;SDS011;32048;49.902;22.508;2023-03-13T04:28:37;8.53;;;4.73;;
37633;SDS011;32048;49.902;22.508;2023-03-13T04:31:04;7.60;;;4.90;;
37633;SDS011;32048;49.902;22.508;2023-03-13T04:33:32;6.20;;;4.23;;
37633;SDS011;32048;49.902;22.508;2023-03-13T04:35:59;5.93;;;4.00;;
37633;SDS011;32048;49.902;22.508;2023-03-13T04:38:26;5.97;;;3.37;;
37633;SDS011;32048;49.902;22.508;2023-03-13T04:40:53;6.67;;;4.70;;
37633;SDS011;32048;49.902;22.508;2023-03-13T04:43:20;6.47;;;4.00;;
37633;SDS011;32048;49.902;22.508;2023-03-13T04:45:47;5.43;;;4.03;;
37633;SDS011;32048;49.902;22.508;2023-03-13T04:48:15;6.13;;;3.70;;
37633;SDS011;32048;49.902;22.508;2023-03-13T04:50:42;7.73;;;4.87;;
37633;SDS011;32048;49.902;22.508;2023-03-13T04:53:10;7.90;;;3.90;;
37633;SDS011;32048;49.902;22.508;2023-03-13T04:55:36;9.23;;;4.60;;
37633;SDS011;32048;49.902;22.508;2023-03-13T04:58:04;4.03;;;3.37;;
37633;SDS011;32048;49.902;22.508;2023-03-13T05:00:31;6.43;;;4.03;;
37633;SDS011;32048;49.902;22.508;2023-03-13T05:02:58;7.13;;;4.70;;
37633;SDS011;32048;49.902;22.508;2023-03-13T05:05:25;10.77;;;5.30;;
37633;SDS011;32048;49.902;22.508;2023-03-13T05:07:52;7.93;;;3.90;;
37633;SDS011;32048;49.902;22.508;2023-03-13T05:10:19;11.93;;;5.43;;
37633;SDS011;32048;49.902;22.508;2023-03-13T05:12:46;8.40;;;4.50;;
37633;SDS011;32048;49.902;22.508;2023-03-13T05:15:13;8.87;;;4.53;;
37633;SDS011;32048;49.902;22.508;2023-03-13T05:17:41;6.60;;;4.43;;
37633;SDS011;32048;49.902;22.508;2023-03-13T05:20:08;8.60;;;4.23;;
37633;SDS011;32048;49.902;22.508;2023-03-13T05:22:37;8.43;;;4.95;;
37633;SDS011;32048;49.902;22.508;2023-03-13T05:25:04;8.93;;;4.03;;
37633;SDS011;32048;49.902;22.508;2023-03-13T05:27:31;10.60;;;4.07;;
37633;SDS011;32048;49.902;22.508;2023-03-13T05:29:58;5.47;;;2.83;;
37633;SDS011;32048;49.902;22.508;2023-03-13T05:32:25;6.90;;;3.90;;
37633;SDS011;32048;49.902;22.508;2023-03-13T05:34:52;6.37;;;3.63;;
37633;SDS011;32048;49.902;22.508;2023-03-13T05:37:20;9.83;;;4.87;;
37633;SDS011;32048;49.902;22.508;2023-03-13T05:39:47;9.70;;;4.00;;
37633;SDS011;32048;49.902;22.508;2023-03-13T05:42:14;8.73;;;3.97;;
37633;SDS011;32048;49.902;22.508;2023-03-13T05:44:41;7.13;;;3.97;;
37633;SDS011;32048;49.902;22.508;2023-03-13T05:47:08;7.83;;;4.33;;
37633;SDS011;32048;49.902;22.508;2023-03-13T05:49:35;6.43;;;3.90;;
37633;SDS011;32048;49.902;22.508;2023-03-13T05:52:02;8.17;;;4.37;;
37633;SDS011;32048;49.902;22.508;2023-03-13T05:54:29;8.03;;;3.83;;
37633;SDS011;32048;49.902;22.508;2023-03-13T05:56:57;5.33;;;4.00;;
37633;SDS011;32048;49.902;22.508;2023-03-13T05:59:23;8.70;;;4.20;;
37633;SDS011;32048;49.902;22.508;2023-03-13T06:01:51;6.43;;;3.30;;
37633;SDS011;32048;49.902;22.508;2023-03-13T06:04:18;5.20;;;3.50;;
37633;SDS011;32048;49.902;22.508;2023-03-13T06:06:45;5.77;;;4.17;;
37633;SDS011;32048;49.902;22.508;2023-03-13T06:09:12;7.10;;;4.53;;
37633;SDS011;32048;49.902;22.508;2023-03-13T06:11:40;7.47;;;5.10;;
37633;SDS011;32048;49.902;22.508;2023-03-13T06:14:07;7.17;;;4.27;;
37633;SDS011;32048;49.902;22.508;2023-03-13T06:16:35;7.13;;;4.10;;
37633;SDS011;32048;49.902;22.508;2023-03-13T06:19:02;4.53;;;3.23;;
37633;SDS011;32048;49.902;22.508;2023-03-13T06:21:29;12.90;;;4.43;;
37633;SDS011;32048;49.902;22.508;2023-03-13T06:23:56;5.53;;;4.37;;
37633;SDS011;32048;49.902;22.508;2023-03-13T06:26:23;5.80;;;3.97;;
37633;SDS011;32048;49.902;22.508;2023-03-13T06:28:51;11.27;;;5.10;;
37633;SDS011;32048;49.902;22.508;2023-03-13T06:31:18;7.70;;;4.83;;
37633;SDS011;32048;49.902;22.508;2023-03-13T06:33:45;9.40;;;4.87;;
37633;SDS011;32048;49.902;22.508;2023-03-13T06:36:15;8.00;;;5.10;;
37633;SDS011;32048;49.902;22.508;2023-03-13T06:38:42;4.63;;;3.60;;
37633;SDS011;32048;49.902;22.508;2023-03-13T06:41:09;7.87;;;5.00;;
37633;SDS011;32048;49.902;22.508;2023-03-13T06:43:36;8.73;;;5.23;;
37633;SDS011;32048;49.902;22.508;2023-03-13T06:46:06;7.47;;;4.30;;
37633;SDS011;32048;49.902;22.508;2023-03-13T06:48:34;11.20;;;5.53;;
37633;SDS011;32048;49.902;22.508;2023-03-13T06:51:01;6.83;;;4.30;;
37633;SDS011;32048;49.902;22.508;2023-03-13T06:53:28;7.93;;;4.93;;
37633;SDS011;32048;49.902;22.508;2023-03-13T06:55:59;6.57;;;4.40;;
37633;SDS011;32048;49.902;22.508;2023-03-13T06:58:26;9.00;;;4.80;;
37633;SDS011;32048;49.902;22.508;2023-03-13T07:01:09;7.60;;;4.03;;
37633;SDS011;32048;49.902;22.508;2023-03-13T07:06:05;9.27;;;4.53;;
37633;SDS011;32048;49.902;22.508;2023-03-13T07:08:33;8.13;;;5.43;;
37633;SDS011;32048;49.902;22.508;2023-03-13T07:11:04;8.13;;;5.13;;
37633;SDS011;32048;49.902;22.508;2023-03-13T07:13:34;8.87;;;4.60;;
37633;SDS011;32048;49.902;22.508;2023-03-13T07:16:06;6.40;;;4.28;;
37633;SDS011;32048;49.902;22.508;2023-03-13T07:18:37;7.77;;;4.77;;
37633;SDS011;32048;49.902;22.508;2023-03-13T07:21:08;7.33;;;4.17;;
37633;SDS011;32048;49.902;22.508;2023-03-13T07:23:36;8.50;;;4.13;;
37633;SDS011;32048;49.902;22.508;2023-03-13T07:26:05;9.33;;;5.90;;
37633;SDS011;32048;49.902;22.508;2023-03-13T07:28:37;7.37;;;4.73;;
37633;SDS011;32048;49.902;22.508;2023-03-13T07:31:12;8.40;;;4.87;;
37633;SDS011;32048;49.902;22.508;2023-03-13T07:33:43;10.20;;;5.27;;
37633;SDS011;32048;49.902;22.508;2023-03-13T07:36:11;9.47;;;5.20;;
37633;SDS011;32048;49.902;22.508;2023-03-13T07:38:40;9.60;;;5.63;;
37633;SDS011;32048;49.902;22.508;2023-03-13T07:41:10;7.77;;;5.00;;
37633;SDS011;32048;49.902;22.508;2023-03-13T07:46:06;12.43;;;5.97;;
37633;SDS011;32048;49.902;22.508;2023-03-13T07:48:35;5.28;;;3.65;;
37633;SDS011;32048;49.902;22.508;2023-03-13T07:51:05;7.20;;;4.50;;
37633;SDS011;32048;49.902;22.508;2023-03-13T07:53:36;5.87;;;4.07;;
37633;SDS011;32048;49.902;22.508;2023-03-13T07:56:05;11.43;;;5.43;;
37633;SDS011;32048;49.902;22.508;2023-03-13T07:58:34;7.20;;;4.30;;
37633;SDS011;32048;49.902;22.508;2023-03-13T08:01:16;7.22;;;4.45;;
37633;SDS011;32048;49.902;22.508;2023-03-13T08:03:53;7.13;;;3.87;;
37633;SDS011;32048;49.902;22.508;2023-03-13T08:06:22;10.53;;;5.53;;
37633;SDS011;32048;49.902;22.508;2023-03-13T08:08:51;8.75;;;4.97;;
37633;SDS011;32048;49.902;22.508;2023-03-13T08:11:22;9.98;;;5.60;;
37633;SDS011;32048;49.902;22.508;2023-03-13T08:13:51;6.77;;;4.00;;
37633;SDS011;32048;49.902;22.508;2023-03-13T08:16:23;7.35;;;4.40;;
37633;SDS011;32048;49.902;22.508;2023-03-13T08:18:53;6.47;;;4.40;;
37633;SDS011;32048;49.902;22.508;2023-03-13T08:21:22;10.60;;;5.00;;
37633;SDS011;32048;49.902;22.508;2023-03-13T08:23:52;7.53;;;3.97;;
37633;SDS011;32048;49.902;22.508;2023-03-13T08:26:25;9.60;;;4.93;;
37633;SDS011;32048;49.902;22.508;2023-03-13T08:28:54;12.37;;;6.17;;
37633;SDS011;32048;49.902;22.508;2023-03-13T08:31:25;7.53;;;5.27;;
37633;SDS011;32048;49.902;22.508;2023-03-13T08:33:53;8.27;;;4.37;;
37633;SDS011;32048;49.902;22.508;2023-03-13T08:36:21;10.87;;;5.97;;
37633;SDS011;32048;49.902;22.508;2023-03-13T08:38:53;7.43;;;4.87;;
37633;SDS011;32048;49.902;22.508;2023-03-13T08:41:22;9.75;;;4.95;;
37633;SDS011;32048;49.902;22.508;2023-03-13T08:43:51;12.00;;;6.10;;
37633;SDS011;32048;49.902;22.508;2023-03-13T08:46:19;11.07;;;5.47;;
37633;SDS011;32048;49.902;22.508;2023-03-13T08:48:53;8.90;;;4.43;;
37633;SDS011;32048;49.902;22.508;2023-03-13T08:51:22;9.33;;;5.37;;
37633;SDS011;32048;49.902;22.508;2023-03-13T08:53:51;10.13;;;4.95;;
37633;SDS011;32048;49.902;22.508;2023-03-13T08:56:20;8.57;;;4.68;;
37633;SDS011;32048;49.902;22.508;2023-03-13T08:58:49;7.78;;;4.80;;
37633;SDS011;32048;49.902;22.508;2023-03-13T09:01:17;7.43;;;3.80;;
37633;SDS011;32048;49.902;22.508;2023-03-13T09:03:45;8.25;;;4.07;;
37633;SDS011;32048;49.902;22.508;2023-03-13T09:06:13;6.85;;;4.10;;
37633;SDS011;32048;49.902;22.508;2023-03-13T09:08:40;7.78;;;4.15;;
37633;SDS011;32048;49.902;22.508;2023-03-13T09:11:09;5.93;;;3.83;;
37633;SDS011;32048;49.902;22.508;2023-03-13T09:13:43;9.07;;;5.05;;
37633;SDS011;32048;49.902;22.508;2023-03-13T09:16:13;6.68;;;3.85;;
37633;SDS011;32048;49.902;22.508;2023-03-13T09:18:44;7.07;;;4.78;;
37633;SDS011;32048;49.902;22.508;2023-03-13T09:21:17;7.68;;;4.45;;
37633;SDS011;32048;49.902;22.508;2023-03-13T09:23:49;6.32;;;4.25;;
37633;SDS011;32048;49.902;22.508;2023-03-13T09:26:17;11.17;;;5.77;;
37633;SDS011;32048;49.902;22.508;2023-03-13T09:28:48;9.48;;;4.50;;
37633;SDS011;32048;49.902;22.508;2023-03-13T09:31:19;6.55;;;4.45;;
37633;SDS011;32048;49.902;22.508;2023-03-13T09:33:48;8.77;;;5.05;;
37633;SDS011;32048;49.902;22.508;2023-03-13T09:36:16;8.45;;;5.15;;
37633;SDS011;32048;49.902;22.508;2023-03-13T09:38:51;6.43;;;4.75;;
37633;SDS011;32048;49.902;22.508;2023-03-13T09:43:52;7.15;;;4.18;;
37633;SDS011;32048;49.902;22.508;2023-03-13T09:49:35;8.23;;;4.93;;
37633;SDS011;32048;49.902;22.508;2023-03-13T09:54:56;8.95;;;5.03;;
37633;SDS011;32048;49.902;22.508;2023-03-13T10:00:13;9.18;;;5.43;;
37633;SDS011;32048;49.902;22.508;2023-03-13T10:02:46;8.65;;;4.38;;
37633;SDS011;32048;49.902;22.508;2023-03-13T10:05:31;7.60;;;4.70;;
37633;SDS011;32048;49.902;22.508;2023-03-13T10:08:04;8.15;;;4.05;;
37633;SDS011;32048;49.902;22.508;2023-03-13T10:10:56;9.65;;;5.88;;
37633;SDS011;32048;49.902;22.508;2023-03-13T10:16:33;7.30;;;5.10;;
37633;SDS011;32048;49.902;22.508;2023-03-13T10:19:14;5.53;;;3.42;;
37633;SDS011;32048;49.902;22.508;2023-03-13T10:21:48;9.57;;;4.72;;
37633;SDS011;32048;49.902;22.508;2023-03-13T10:26:59;12.52;;;5.50;;
37633;SDS011;32048;49.902;22.508;2023-03-13T10:29:27;11.00;;;5.47;;
37633;SDS011;32048;49.902;22.508;2023-03-13T10:34:27;8.82;;;5.05;;
37633;SDS011;32048;49.902;22.508;2023-03-13T10:36:59;6.72;;;4.18;;
37633;SDS011;32048;49.902;22.508;2023-03-13T10:39:28;9.05;;;4.40;;
37633;SDS011;32048;49.902;22.508;2023-03-13T10:41:56;8.93;;;5.50;;
37633;SDS011;32048;49.902;22.508;2023-03-13T10:44:33;10.43;;;5.65;;
37633;SDS011;32048;49.902;22.508;2023-03-13T10:47:01;9.40;;;5.25;;
37633;SDS011;32048;49.902;22.508;2023-03-13T10:49:30;7.35;;;4.55;;
37633;SDS011;32048;49.902;22.508;2023-03-13T10:51:58;6.85;;;4.25;;
37633;SDS011;32048;49.902;22.508;2023-03-13T10:54:32;11.45;;;6.45;;
37633;SDS011;32048;49.902;22.508;2023-03-13T10:59:45;7.40;;;4.55;;
37633;SDS011;32048;49.902;22.508;2023-03-13T11:02:21;8.77;;;4.97;;
37633;SDS011;32048;49.902;22.508;2023-03-13T11:04:54;9.10;;;5.10;;
37633;SDS011;32048;49.902;22.508;2023-03-13T11:10:02;7.00;;;4.32;;
37633;SDS011;32048;49.902;22.508;2023-03-13T11:12:45;6.47;;;4.22;;
37633;SDS011;32048;49.902;22.508;2023-03-13T11:15:16;8.40;;;4.65;;
37633;SDS011;32048;49.902;22.508;2023-03-13T11:17:55;7.60;;;4.68;;
37633;SDS011;32048;49.902;22.508;2023-03-13T11:21:02;7.40;;;4.78;;
37633;SDS011;32048;49.902;22.508;2023-03-13T11:23:44;7.82;;;4.63;;
37633;SDS011;32048;49.902;22.508;2023-03-13T11:31:45;5.90;;;3.45;;
37633;SDS011;32048;49.902;22.508;2023-03-13T11:34:20;7.82;;;4.60;;
37633;SDS011;32048;49.902;22.508;2023-03-13T11:36:52;9.30;;;4.60;;
37633;SDS011;32048;49.902;22.508;2023-03-13T11:45:07;9.97;;;4.80;;
37633;SDS011;32048;49.902;22.508;2023-03-13T11:48:03;7.22;;;3.92;;
37633;SDS011;32048;49.902;22.508;2023-03-13T11:56:53;5.78;;;3.97;;
37633;SDS011;32048;49.902;22.508;2023-03-13T11:59:26;6.07;;;4.35;;
37633;SDS011;32048;49.902;22.508;2023-03-13T12:02:08;8.05;;;4.80;;
37633;SDS011;32048;49.902;22.508;2023-03-13T12:04:58;7.97;;;4.45;;
37633;SDS011;32048;49.902;22.508;2023-03-13T12:07:49;5.70;;;3.83;;
37633;SDS011;32048;49.902;22.508;2023-03-13T12:15:30;7.93;;;3.67;;
37633;SDS011;32048;49.902;22.508;2023-03-13T12:20:43;6.57;;;4.60;;
37633;SDS011;32048;49.902;22.508;2023-03-13T12:23:19;6.32;;;4.13;;
37633;SDS011;32048;49.902;22.508;2023-03-13T12:25:58;8.23;;;3.97;;
37633;SDS011;32048;49.902;22.508;2023-03-13T12:28:38;9.32;;;4.38;;
37633;SDS011;32048;49.902;22.508;2023-03-13T12:36:30;7.28;;;4.22;;
37633;SDS011;32048;49.902;22.508;2023-03-13T12:44:50;6.20;;;3.80;;
37633;SDS011;32048;49.902;22.508;2023-03-13T12:52:36;7.60;;;4.28;;
37633;SDS011;32048;49.902;22.508;2023-03-13T12:58:07;7.38;;;3.97;;
37633;SDS011;32048;49.902;22.508;2023-03-13T13:00:44;7.32;;;4.10;;
37633;SDS011;32048;49.902;22.508;2023-03-13T13:06:08;6.90;;;4.18;;
37633;SDS011;32048;49.902;22.508;2023-03-13T13:08:41;5.85;;;3.92;;
37633;SDS011;32048;49.902;22.508;2023-03-13T13:14:02;6.28;;;3.65;;
37633;SDS011;32048;49.902;22.508;2023-03-13T13:16:40;10.52;;;3.95;;
37633;SDS011;32048;49.902;22.508;2023-03-13T13:24:56;7.47;;;4.00;;
37633;SDS011;32048;49.902;22.508;2023-03-13T13:29:59;7.18;;;4.40;;
37633;SDS011;32048;49.902;22.508;2023-03-13T13:32:29;5.50;;;3.38;;
37633;SDS011;32048;49.902;22.508;2023-03-13T13:35:02;6.60;;;4.15;;
37633;SDS011;32048;49.902;22.508;2023-03-13T13:37:32;7.85;;;4.60;;
37633;SDS011;32048;49.902;22.508;2023-03-13T13:45:32;8.43;;;4.72;;
37633;SDS011;32048;49.902;22.508;2023-03-13T13:58:59;8.85;;;4.28;;
37633;SDS011;32048;49.902;22.508;2023-03-13T14:04:51;6.72;;;4.38;;
37633;SDS011;32048;49.902;22.508;2023-03-13T14:10:24;7.07;;;4.50;;
37633;SDS011;32048;49.902;22.508;2023-03-13T14:13:12;7.03;;;4.80;;
37633;SDS011;32048;49.902;22.508;2023-03-13T14:15:40;7.70;;;3.90;;
37633;SDS011;32048;49.902;22.508;2023-03-13T14:18:10;7.63;;;4.35;;
37633;SDS011;32048;49.902;22.508;2023-03-13T14:26:26;9.85;;;4.85;;
37633;SDS011;32048;49.902;22.508;2023-03-13T14:28:59;5.47;;;4.07;;
37633;SDS011;32048;49.902;22.508;2023-03-13T14:31:34;8.90;;;5.50;;
37633;SDS011;32048;49.902;22.508;2023-03-13T14:34:04;8.73;;;5.68;;
37633;SDS011;32048;49.902;22.508;2023-03-13T14:36:46;9.93;;;5.65;;
37633;SDS011;32048;49.902;22.508;2023-03-13T14:39:21;7.10;;;4.45;;
37633;SDS011;32048;49.902;22.508;2023-03-13T14:42:08;7.60;;;4.30;;
37633;SDS011;32048;49.902;22.508;2023-03-13T14:44:41;9.82;;;5.65;;
37633;SDS011;32048;49.902;22.508;2023-03-13T14:49:44;14.63;;;6.55;;
37633;SDS011;32048;49.902;22.508;2023-03-13T14:54:56;13.88;;;8.38;;
37633;SDS011;32048;49.902;22.508;2023-03-13T14:57:24;14.80;;;8.30;;
37633;SDS011;32048;49.902;22.508;2023-03-13T14:59:53;10.75;;;6.72;;
37633;SDS011;32048;49.902;22.508;2023-03-13T15:02:41;10.93;;;6.30;;
37633;SDS011;32048;49.902;22.508;2023-03-13T15:05:28;8.75;;;5.93;;
37633;SDS011;32048;49.902;22.508;2023-03-13T15:07:56;10.80;;;6.05;;
37633;SDS011;32048;49.902;22.508;2023-03-13T15:10:31;11.02;;;6.32;;
37633;SDS011;32048;49.902;22.508;2023-03-13T15:15:55;13.13;;;7.03;;
37633;SDS011;32048;49.902;22.508;2023-03-13T15:18:23;14.02;;;7.78;;
37633;SDS011;32048;49.902;22.508;2023-03-13T15:20:53;12.70;;;6.65;;
37633;SDS011;32048;49.902;22.508;2023-03-13T15:23:24;15.60;;;9.40;;
37633;SDS011;32048;49.902;22.508;2023-03-13T15:25:51;9.20;;;5.82;;
37633;SDS011;32048;49.902;22.508;2023-03-13T15:28:22;10.40;;;5.22;;
37633;SDS011;32048;49.902;22.508;2023-03-13T15:30:50;12.75;;;7.25;;
37633;SDS011;32048;49.902;22.508;2023-03-13T15:33:18;12.48;;;6.75;;
37633;SDS011;32048;49.902;22.508;2023-03-13T15:35:48;11.85;;;7.32;;
37633;SDS011;32048;49.902;22.508;2023-03-13T15:38:17;11.60;;;7.13;;
37633;SDS011;32048;49.902;22.508;2023-03-13T15:40:45;12.98;;;7.88;;
37633;SDS011;32048;49.902;22.508;2023-03-13T15:43:13;13.57;;;7.57;;
37633;SDS011;32048;49.902;22.508;2023-03-13T15:45:41;12.70;;;6.85;;
37633;SDS011;32048;49.902;22.508;2023-03-13T15:48:19;17.73;;;8.70;;
37633;SDS011;32048;49.902;22.508;2023-03-13T15:50:50;13.73;;;8.45;;
37633;SDS011;32048;49.902;22.508;2023-03-13T15:53:19;8.32;;;5.47;;
37633;SDS011;32048;49.902;22.508;2023-03-13T15:55:53;11.20;;;6.80;;
37633;SDS011;32048;49.902;22.508;2023-03-13T15:58:21;15.95;;;8.45;;
37633;SDS011;32048;49.902;22.508;2023-03-13T16:00:49;14.45;;;8.90;;
37633;SDS011;32048;49.902;22.508;2023-03-13T16:03:23;8.80;;;6.22;;
37633;SDS011;32048;49.902;22.508;2023-03-13T16:05:52;22.83;;;17.75;;
37633;SDS011;32048;49.902;22.508;2023-03-13T16:08:22;14.10;;;8.15;;
37633;SDS011;32048;49.902;22.508;2023-03-13T16:11:02;14.60;;;7.93;;
37633;SDS011;32048;49.902;22.508;2023-03-13T16:13:29;16.38;;;9.65;;
37633;SDS011;32048;49.902;22.508;2023-03-13T16:15:57;15.60;;;7.90;;
37633;SDS011;32048;49.902;22.508;2023-03-13T16:18:24;12.25;;;7.22;;
37633;SDS011;32048;49.902;22.508;2023-03-13T16:20:51;12.88;;;7.35;;
37633;SDS011;32048;49.902;22.508;2023-03-13T16:23:19;10.43;;;6.45;;
37633;SDS011;32048;49.902;22.508;2023-03-13T16:25:46;14.40;;;7.43;;
37633;SDS011;32048;49.902;22.508;2023-03-13T16:28:14;13.57;;;8.40;;
37633;SDS011;32048;49.902;22.508;2023-03-13T16:30:42;12.65;;;7.93;;
37633;SDS011;32048;49.902;22.508;2023-03-13T16:33:09;14.13;;;8.35;;
37633;SDS011;32048;49.902;22.508;2023-03-13T16:35:38;14.77;;;7.47;;
37633;SDS011;32048;49.902;22.508;2023-03-13T16:38:05;10.98;;;7.07;;
37633;SDS011;32048;49.902;22.508;2023-03-13T16:40:34;14.45;;;7.03;;
37633;SDS011;32048;49.902;22.508;2023-03-13T16:43:01;13.00;;;7.72;;
37633;SDS011;32048;49.902;22.508;2023-03-13T16:45:29;13.83;;;7.20;;
37633;SDS011;32048;49.902;22.508;2023-03-13T16:47:56;15.35;;;7.35;;
37633;SDS011;32048;49.902;22.508;2023-03-13T16:53:12;16.55;;;9.07;;
37633;SDS011;32048;49.902;22.508;2023-03-13T16:55:39;13.45;;;6.70;;
37633;SDS011;32048;49.902;22.508;2023-03-13T16:58:08;11.50;;;7.32;;
37633;SDS011;32048;49.902;22.508;2023-03-13T17:00:38;15.48;;;7.60;;
37633;SDS011;32048;49.902;22.508;2023-03-13T17:03:05;14.15;;;7.13;;
37633;SDS011;32048;49.902;22.508;2023-03-13T17:05:32;10.05;;;5.95;;
37633;SDS011;32048;49.902;22.508;2023-03-13T17:07:59;10.15;;;5.65;;
37633;SDS011;32048;49.902;22.508;2023-03-13T17:10:31;12.27;;;5.90;;
37633;SDS011;32048;49.902;22.508;2023-03-13T17:12:58;10.20;;;6.68;;